createdAt,value
2019-05-07T03:47:16.548Z,66.90
2019-05-07T03:49:44.973Z,66.80
2019-05-07T03:52:13.801Z,66.70
2019-05-07T03:54:43.041Z,66.80
2019-05-07T03:57:15.742Z,66.80
2019-05-07T03:59:43.170Z,66.70
2019-05-07T04:02:14.261Z,66.60
2019-05-07T04:04:43.341Z,66.70
2019-05-07T04:07:13.779Z,66.70
2019-05-07T04:09:43.736Z,66.40
2019-05-07T04:12:13.175Z,66.40
2019-05-07T04:14:43.277Z,66.60
2019-05-07T04:17:18.506Z,66.90
2019-05-07T04:19:44.070Z,66.70
2019-05-07T04:22:13.239Z,66.60
2019-05-07T04:25:04.239Z,66.30
2019-05-07T04:27:33.438Z,66.30
2019-05-07T04:30:03.683Z,66.60
2019-05-07T04:32:33.756Z,66.30
2019-05-07T04:35:15.903Z,67.00
2019-05-07T04:37:44.333Z,66.10
2019-05-07T04:40:13.495Z,66.10
2019-05-07T04:42:42.830Z,66.10
2019-05-07T04:45:13.691Z,66.20
2019-05-07T04:47:46.745Z,66.10
2019-05-07T04:50:14.181Z,66.10
2019-05-07T04:52:43.654Z,65.80
2019-05-07T04:55:13.796Z,65.40
2019-05-07T04:57:43.769Z,65.60
2019-05-07T05:00:13.603Z,65.60
2019-05-07T05:02:49.469Z,65.80
2019-05-07T05:05:19.499Z,65.90
2019-05-07T05:07:47.992Z,66.00
2019-05-07T05:10:16.552Z,66.20
2019-05-07T05:12:44.976Z,65.70
2019-05-07T05:15:13.832Z,66.10
2019-05-07T05:17:50.125Z,66.00
2019-05-07T05:20:13.257Z,65.90
2019-05-07T05:23:02.485Z,65.60
2019-05-07T05:25:35.367Z,65.70
2019-05-07T05:28:03.860Z,65.80
2019-05-07T05:30:36.703Z,65.40
2019-05-07T05:33:05.197Z,65.30
2019-05-07T05:35:33.616Z,65.00
2019-05-07T05:38:03.052Z,64.80
2019-05-07T05:40:32.068Z,64.80
2019-05-07T05:43:08.180Z,64.80
2019-05-07T05:45:42.590Z,64.70
2019-05-07T05:48:13.305Z,64.20
2019-05-07T05:50:43.019Z,63.70
2019-05-07T05:53:25.219Z,63.30
2019-05-07T05:55:54.512Z,62.80
2019-05-07T05:58:32.407Z,62.30
2019-05-07T06:01:05.253Z,61.80
2019-05-07T06:03:43.016Z,61.30
2019-05-07T06:06:19.028Z,61.10
2019-05-07T06:08:49.105Z,60.60
2019-05-07T06:11:21.968Z,60.30
2019-05-07T06:13:57.828Z,60.00
2019-05-07T06:16:36.841Z,59.30
2019-05-07T06:19:13.034Z,58.90
2019-05-07T06:21:59.356Z,58.60
2019-05-07T06:24:37.949Z,58.50
2019-05-07T06:27:06.379Z,58.00
2019-05-07T06:29:34.831Z,58.20
2019-05-07T06:32:05.785Z,58.10
2019-05-07T06:34:34.342Z,58.10
2019-05-07T06:37:02.824Z,58.20
2019-05-07T06:39:52.949Z,57.90
2019-05-07T06:42:22.788Z,58.00
2019-05-07T06:44:52.861Z,57.60
2019-05-07T06:47:22.199Z,56.90
2019-05-07T06:49:52.335Z,56.70
2019-05-07T06:52:22.442Z,56.30
2019-05-07T06:54:52.347Z,56.00
2019-05-07T06:57:22.248Z,56.10
2019-05-07T06:59:53.147Z,55.50
2019-05-07T07:02:23.297Z,55.40
2019-05-07T07:04:53.792Z,55.20
2019-05-07T07:07:32.331Z,55.20
2019-05-07T07:10:07.188Z,55.60
2019-05-07T07:12:35.691Z,55.20
2019-05-07T07:15:05.250Z,55.00
2019-05-07T07:17:33.685Z,54.10
2019-05-07T07:20:02.423Z,54.10
2019-05-07T07:22:31.986Z,53.90
2019-05-07T07:25:02.547Z,53.50
2019-05-07T07:27:32.228Z,52.00
2019-05-07T07:30:02.562Z,51.50
2019-05-07T07:32:32.748Z,51.80
2019-05-07T07:35:02.400Z,51.90
2019-05-07T07:37:35.381Z,51.90
2019-05-07T07:40:08.292Z,52.10
2019-05-07T07:42:36.720Z,52.30
2019-05-07T07:45:19.024Z,51.60
2019-05-07T07:47:47.793Z,51.30
2019-05-07T07:50:16.569Z,51.00
2019-05-07T07:52:45.132Z,50.40
2019-05-07T07:55:15.544Z,50.20
2019-05-07T07:58:03.465Z,50.00
2019-05-07T08:00:33.536Z,49.70
2019-05-07T08:03:03.610Z,48.50
2019-05-07T08:05:32.612Z,48.40
2019-05-07T08:08:02.305Z,48.00
2019-05-07T08:10:32.583Z,46.70
2019-05-07T08:13:01.924Z,47.20
2019-05-07T08:15:32.806Z,46.00
2019-05-07T08:18:02.797Z,45.20
2019-05-07T08:20:32.696Z,43.70
2019-05-07T08:23:02.983Z,43.40
2019-05-07T08:25:49.470Z,42.50
2019-05-07T08:28:19.605Z,40.90
2019-05-07T08:30:49.843Z,42.30
2019-05-07T08:33:19.913Z,42.40
2019-05-07T08:35:52.172Z,42.70
2019-05-07T08:38:21.902Z,41.40
2019-05-07T08:40:52.083Z,41.10
2019-05-07T08:43:21.846Z,40.60
2019-05-07T08:46:07.939Z,38.00
2019-05-07T08:48:38.004Z,38.60
2019-05-07T08:51:06.439Z,39.50
2019-05-07T08:53:34.860Z,40.20
2019-05-07T08:56:03.424Z,40.10
2019-05-07T08:58:31.901Z,38.90
2019-05-07T09:01:02.896Z,38.70
2019-05-07T09:03:43.169Z,36.20
2019-05-07T09:06:17.262Z,35.40
2019-05-07T09:08:45.757Z,33.30
2019-05-07T09:11:14.216Z,34.20
2019-05-07T09:13:42.648Z,35.30
2019-05-07T09:16:12.904Z,36.20
2019-05-07T09:18:42.227Z,34.80
2019-05-07T09:21:12.506Z,33.50
2019-05-07T09:23:42.414Z,33.30
2019-05-07T09:26:13.083Z,32.40
2019-05-07T09:28:46.228Z,31.20
2019-05-07T09:31:19.783Z,30.90
2019-05-07T09:33:49.848Z,29.60
2019-05-07T09:36:19.924Z,28.70
2019-05-07T09:38:56.749Z,27.30
2019-05-07T09:41:22.254Z,27.10
2019-05-07T09:43:51.858Z,28.30
2019-05-07T09:46:22.621Z,27.00
2019-05-07T09:48:52.368Z,26.60
2019-05-07T09:51:22.591Z,28.00
2019-05-07T09:53:52.003Z,27.60
2019-05-07T09:56:22.459Z,27.30
2019-05-07T09:58:52.914Z,27.70
2019-05-07T10:01:20.962Z,28.00
2019-05-07T10:03:49.527Z,26.10
2019-05-07T10:06:17.982Z,26.60
2019-05-07T10:08:46.452Z,26.50
2019-05-07T10:11:16.513Z,27.20
2019-05-07T10:13:49.375Z,27.20
2019-05-07T10:16:19.803Z,26.60
2019-05-07T10:18:48.237Z,26.00
2019-05-07T10:21:16.656Z,26.50
2019-05-07T10:23:45.080Z,26.60
2019-05-07T10:26:13.586Z,25.50
2019-05-07T10:28:42.540Z,27.00
2019-05-07T10:31:11.150Z,27.60
2019-05-07T10:33:39.887Z,27.40
2019-05-07T10:36:08.443Z,27.30
2019-05-07T10:38:37.507Z,25.90
2019-05-07T10:41:05.933Z,26.00
2019-05-07T10:43:34.486Z,25.40
2019-05-07T10:46:16.607Z,23.90
2019-05-07T10:48:46.813Z,24.70
2019-05-07T10:51:15.368Z,24.40
2019-05-07T10:53:44.111Z,24.00
2019-05-07T10:56:12.747Z,24.80
2019-05-07T10:58:41.738Z,26.10
2019-05-07T11:01:12.039Z,25.00
2019-05-07T11:03:40.633Z,23.20
2019-05-07T11:06:09.238Z,24.30
2019-05-07T11:08:37.679Z,24.10
2019-05-07T11:11:06.334Z,23.70
2019-05-07T11:13:34.764Z,23.50
2019-05-07T11:16:07.403Z,23.40
2019-05-07T11:18:40.259Z,24.20
2019-05-07T11:21:08.684Z,25.20
2019-05-07T11:23:37.680Z,26.10
2019-05-07T11:26:06.100Z,26.20
2019-05-07T11:28:34.640Z,25.90
2019-05-07T11:31:03.354Z,24.90
2019-05-07T11:33:32.611Z,24.20
2019-05-07T11:36:02.042Z,22.70
2019-05-07T11:38:33.107Z,22.70
2019-05-07T11:41:02.278Z,21.60
2019-05-07T11:43:47.300Z,23.00
2019-05-07T11:46:17.761Z,23.70
2019-05-07T11:48:47.841Z,25.30
2019-05-07T11:51:34.053Z,24.90
2019-05-07T11:54:12.391Z,24.90
2019-05-07T11:56:42.140Z,25.50
2019-05-07T11:59:13.108Z,25.30
2019-05-07T12:01:47.217Z,24.40
2019-05-07T12:04:12.609Z,24.00
2019-05-07T12:06:41.020Z,23.90
2019-05-07T12:09:09.623Z,23.10
2019-05-07T12:11:38.128Z,22.90
2019-05-07T12:14:06.902Z,23.30
2019-05-07T12:16:35.333Z,23.30
2019-05-07T12:19:04.008Z,24.00
2019-05-07T12:21:32.799Z,23.50
2019-05-07T12:24:02.164Z,23.70
2019-05-07T12:26:32.419Z,22.70
2019-05-07T12:29:00.867Z,23.30
2019-05-07T12:31:47.156Z,22.50
2019-05-07T12:34:17.232Z,21.90
2019-05-07T12:36:45.676Z,22.80
2019-05-07T12:39:14.397Z,23.30
2019-05-07T12:41:42.849Z,23.80
2019-05-07T12:44:13.026Z,23.70
2019-05-07T12:46:42.269Z,23.30
2019-05-07T12:49:12.002Z,23.00
2019-05-07T12:51:51.077Z,22.50
2019-05-07T12:54:22.664Z,22.60
2019-05-07T12:56:52.010Z,23.00
2019-05-07T12:59:21.863Z,23.20
2019-05-07T13:02:00.838Z,23.10
2019-05-07T13:04:32.543Z,22.30
2019-05-07T13:07:05.216Z,22.40
2019-05-07T13:09:33.637Z,22.10
2019-05-07T13:12:02.985Z,23.00
2019-05-07T13:14:31.656Z,23.20
2019-05-07T13:17:00.096Z,23.60
2019-05-07T13:19:28.515Z,23.00
2019-05-07T13:21:56.944Z,22.20
2019-05-07T13:24:25.368Z,22.40
2019-05-07T13:26:53.801Z,22.70
2019-05-07T13:29:22.346Z,22.50
2019-05-07T13:31:54.272Z,22.50
2019-05-07T13:34:22.943Z,21.90
2019-05-07T13:36:56.375Z,22.70
2019-05-07T13:39:38.593Z,23.50
2019-05-07T13:42:08.660Z,24.00
2019-05-07T13:44:41.650Z,24.00
2019-05-07T13:47:29.685Z,23.90
2019-05-07T13:49:58.413Z,23.70
2019-05-07T13:52:26.917Z,23.90
2019-05-07T13:54:55.412Z,23.80
2019-05-07T13:57:23.908Z,24.40
2019-05-07T13:59:53.213Z,23.60
2019-05-07T14:02:23.524Z,23.70
2019-05-07T14:04:52.631Z,23.50
2019-05-07T14:07:21.850Z,23.20
2019-05-07T14:09:52.724Z,22.70
2019-05-07T14:12:22.923Z,23.50
2019-05-07T14:14:53.111Z,23.80
2019-05-07T14:17:22.014Z,23.00
2019-05-07T14:19:52.863Z,24.10
2019-05-07T14:22:22.534Z,24.30
2019-05-07T14:24:52.896Z,24.70
2019-05-07T14:27:21.153Z,24.20
2019-05-07T14:29:51.764Z,24.60
2019-05-07T14:32:24.352Z,24.60
2019-05-07T14:35:03.319Z,24.90
2019-05-07T14:37:33.396Z,24.80
2019-05-07T14:40:02.686Z,24.80
2019-05-07T14:42:38.266Z,24.70
2019-05-07T14:45:07.381Z,24.70
2019-05-07T14:47:35.976Z,24.40
2019-05-07T14:50:06.048Z,24.90
2019-05-07T14:52:36.224Z,25.00
2019-05-07T14:55:06.086Z,25.60
2019-05-07T14:57:35.560Z,26.30
2019-05-07T15:00:06.525Z,25.90
2019-05-07T15:02:35.046Z,26.20
2019-05-07T15:05:07.916Z,26.40
2019-05-07T15:07:36.917Z,25.80
2019-05-07T15:10:06.897Z,25.80
2019-05-07T15:12:35.405Z,25.70
2019-05-07T15:15:05.489Z,25.40
2019-05-07T15:17:53.867Z,25.40
2019-05-07T15:20:22.642Z,25.60
2019-05-07T15:22:59.248Z,25.90
2019-05-07T15:25:27.748Z,26.10
2019-05-07T15:27:56.823Z,26.70
2019-05-07T15:30:26.883Z,26.50
2019-05-07T15:32:55.328Z,26.80
2019-05-07T15:35:23.755Z,26.60
2019-05-07T15:37:52.243Z,27.00
2019-05-07T15:40:22.463Z,27.10
2019-05-07T15:42:52.480Z,27.50
2019-05-07T15:45:21.845Z,27.40
2019-05-07T15:47:52.028Z,27.40
2019-05-07T15:50:23.061Z,27.10
2019-05-07T15:52:58.465Z,27.20
2019-05-07T15:55:25.980Z,26.60
2019-05-07T15:57:54.804Z,26.30
2019-05-07T16:00:27.831Z,26.50
2019-05-07T16:02:57.916Z,26.60
2019-05-07T16:05:26.345Z,27.00
2019-05-07T16:07:54.868Z,26.40
2019-05-07T16:10:23.494Z,26.70
2019-05-07T16:12:53.169Z,26.60
2019-05-07T16:15:22.490Z,26.00
2019-05-07T16:18:04.532Z,26.30
2019-05-07T16:20:32.980Z,26.40
2019-05-07T16:23:13.914Z,25.90
2019-05-07T16:25:33.468Z,26.00
2019-05-07T16:28:04.732Z,27.10
2019-05-07T16:30:32.514Z,27.10
2019-05-07T16:33:02.085Z,27.20
2019-05-07T16:35:32.077Z,27.70
2019-05-07T16:38:00.934Z,25.90
2019-05-07T16:40:29.505Z,26.50
2019-05-07T16:42:57.927Z,26.70
2019-05-07T16:45:26.993Z,27.10
2019-05-07T16:47:55.415Z,28.20
2019-05-07T16:50:23.914Z,27.70
2019-05-07T16:52:52.588Z,27.90
2019-05-07T16:55:22.422Z,27.80
2019-05-07T16:58:01.918Z,27.70
2019-05-07T17:00:32.171Z,27.50
2019-05-07T17:03:02.537Z,26.90
2019-05-07T17:05:32.083Z,27.60
2019-05-07T17:08:02.572Z,28.00
2019-05-07T17:10:31.794Z,27.80
2019-05-07T17:13:02.741Z,28.40
2019-05-07T17:15:30.656Z,28.10
2019-05-07T17:17:59.210Z,27.90
2019-05-07T17:20:28.472Z,28.00
2019-05-07T17:22:57.292Z,28.50
2019-05-07T17:25:37.531Z,29.10
2019-05-07T17:28:07.778Z,29.00
2019-05-07T17:30:37.763Z,28.40
2019-05-07T17:33:06.832Z,28.30
2019-05-07T17:35:35.347Z,28.50
2019-05-07T17:38:07.277Z,29.40
2019-05-07T17:40:35.995Z,32.10
2019-05-07T17:43:05.442Z,31.80
2019-05-07T17:45:33.993Z,31.90
2019-05-07T17:48:03.233Z,33.00
2019-05-07T17:50:46.299Z,36.20
2019-05-07T17:53:14.905Z,37.00
2019-05-07T17:55:43.801Z,37.10
2019-05-07T17:58:12.883Z,38.40
2019-05-07T18:00:43.457Z,39.00
2019-05-07T18:03:13.608Z,34.90
2019-05-07T18:05:42.419Z,34.40
2019-05-07T18:08:12.677Z,34.40
2019-05-07T18:10:43.100Z,34.70
2019-05-07T18:13:11.924Z,35.20
2019-05-07T18:15:42.825Z,35.10
2019-05-07T18:18:14.410Z,35.80
2019-05-07T18:20:42.885Z,35.10
2019-05-07T18:23:16.708Z,35.10
2019-05-07T18:25:42.861Z,35.10
2019-05-07T18:28:12.322Z,35.70
2019-05-07T18:30:40.965Z,35.40
2019-05-07T18:33:14.592Z,34.40
2019-05-07T18:35:45.443Z,34.80
2019-05-07T18:38:14.285Z,34.90
2019-05-07T18:40:43.977Z,35.00
2019-05-07T18:43:12.517Z,35.00
2019-05-07T18:45:42.108Z,35.20
2019-05-07T18:48:14.523Z,35.40
2019-05-07T18:50:43.058Z,35.50
2019-05-07T18:53:12.142Z,35.70
2019-05-07T18:55:42.837Z,35.70
2019-05-07T18:58:13.327Z,35.50
2019-05-07T19:00:44.712Z,35.80
2019-05-07T19:03:14.015Z,36.00
2019-05-07T19:05:43.145Z,35.80
2019-05-07T19:08:12.562Z,36.10
2019-05-07T19:10:42.932Z,36.40
2019-05-07T19:13:14.289Z,36.50
2019-05-07T19:15:44.673Z,36.30
2019-05-07T19:18:15.202Z,36.50
2019-05-07T19:20:44.673Z,36.90
2019-05-07T19:23:13.245Z,37.00
2019-05-07T19:25:43.302Z,37.30
2019-05-07T19:28:14.917Z,37.50
2019-05-07T19:30:45.255Z,37.60
2019-05-07T19:33:18.538Z,38.10
2019-05-07T19:35:47.258Z,39.30
2019-05-07T19:38:15.726Z,41.30
2019-05-07T19:40:44.236Z,41.70
2019-05-07T19:43:13.415Z,42.10
2019-05-07T19:45:43.403Z,42.50
2019-05-07T19:48:12.461Z,42.50
2019-05-07T19:50:42.027Z,43.30
2019-05-07T19:53:12.506Z,44.00
2019-05-07T19:56:02.108Z,44.60
2019-05-07T19:58:32.709Z,45.40
2019-05-07T20:01:06.999Z,45.80
2019-05-07T20:03:35.684Z,46.40
2019-05-07T20:06:04.590Z,46.70
2019-05-07T20:08:33.247Z,47.00
2019-05-07T20:11:03.425Z,47.20
2019-05-07T20:13:33.988Z,46.90
2019-05-07T20:16:07.868Z,46.00
2019-05-07T20:18:38.407Z,46.10
2019-05-07T20:21:07.269Z,46.30
2019-05-07T20:23:35.822Z,46.80
2019-05-07T20:26:04.394Z,47.80
2019-05-07T20:28:32.906Z,46.70
2019-05-07T20:31:01.431Z,46.50
2019-05-07T20:33:29.982Z,46.90
2019-05-07T20:35:58.595Z,47.10
2019-05-07T20:38:27.204Z,48.00
2019-05-07T20:40:55.751Z,48.70
2019-05-07T20:43:24.440Z,48.50
2019-05-07T20:45:52.934Z,48.30
2019-05-07T20:48:22.700Z,48.70
2019-05-07T20:50:52.049Z,49.30
2019-05-07T20:53:22.334Z,49.30
2019-05-07T20:55:54.813Z,49.40
2019-05-07T20:58:23.286Z,49.70
2019-05-07T21:00:52.637Z,49.70
2019-05-07T21:03:23.354Z,50.00
2019-05-07T21:05:53.129Z,49.50
2019-05-07T21:08:22.830Z,48.80
2019-05-07T21:10:53.612Z,48.80
2019-05-07T21:13:29.389Z,47.50
2019-05-07T21:15:52.647Z,48.10
2019-05-07T21:18:23.316Z,47.90
2019-05-07T21:20:53.021Z,48.00
2019-05-07T21:23:23.048Z,47.50
2019-05-07T21:25:52.697Z,48.00
2019-05-07T21:28:21.816Z,47.60
2019-05-07T21:30:52.246Z,47.50
2019-05-07T21:33:22.610Z,47.60
2019-05-07T21:35:52.283Z,49.50
2019-05-07T21:38:22.366Z,51.00
2019-05-07T21:40:51.322Z,51.70
2019-05-07T21:43:21.854Z,51.60
2019-05-07T21:45:49.975Z,51.70
2019-05-07T21:48:18.429Z,51.90
2019-05-07T21:50:46.974Z,52.10
2019-05-07T21:53:19.757Z,52.40
2019-05-07T21:55:59.916Z,52.50
2019-05-07T21:58:24.420Z,52.80
2019-05-07T22:01:03.080Z,52.40
2019-05-07T22:03:32.424Z,52.20
2019-05-07T22:06:02.625Z,52.40
2019-05-07T22:08:32.596Z,50.50
2019-05-07T22:11:02.521Z,49.80
2019-05-07T22:13:32.970Z,50.10
2019-05-07T22:16:02.534Z,50.70
2019-05-07T22:18:33.595Z,50.80
2019-05-07T22:21:02.965Z,51.60
2019-05-07T22:23:32.310Z,52.00
2019-05-07T22:26:18.474Z,52.20
2019-05-07T22:28:32.107Z,52.70
2019-05-07T22:31:04.816Z,52.70
2019-05-07T22:33:52.776Z,52.80
2019-05-07T22:36:21.975Z,52.70
2019-05-07T22:38:52.647Z,52.60
2019-05-07T22:41:22.383Z,51.90
2019-05-07T22:43:51.033Z,51.90
2019-05-07T22:46:22.055Z,51.60
2019-05-07T22:48:49.676Z,50.20
2019-05-07T22:51:18.175Z,50.20
2019-05-07T22:53:46.619Z,49.50
2019-05-07T22:56:30.983Z,49.60
2019-05-07T22:58:49.569Z,49.50
